Wetterdaten: aktuell Freitag, 23.10.2020 03:54
Datum Zeit Temp. A. Feuchte A. Luftdruck Regen Wind Richtung Richtung Taupunkt Windchill
23.10.2020 03:54 14,4 C 90 % 1010,3 hPa 0,0 l/m 0,0 km/h (0 Bft) S-SO 155 12,8 C 14,4 C
23.10.2020 03:52 14,4 C 90 % 1010,3 hPa 0,0 l/m 0,1 km/h (0 Bft) S-SO 155 12,8 C 14,4 C
23.10.2020 03:50 14,4 C 90 % 1010,3 hPa 0,0 l/m 0,1 km/h (0 Bft) S-SO 155 12,8 C 14,4 C
23.10.2020 03:48 14,4 C 90 % 1010,3 hPa 0,0 l/m 0,1 km/h (0 Bft) S-SO 155 12,8 C 14,4 C
23.10.2020 03:46 14,4 C 90 % 1010,3 hPa 0,0 l/m 3,9 km/h (1 Bft) S-SO 155 12,8 C 14,4 C
23.10.2020 03:44 14,4 C 90 % 1010,3 hPa 0,0 l/m 0,6 km/h (0 Bft) S-SO 150 12,8 C 14,4 C
23.10.2020 03:42 14,4 C 90 % 1010,3 hPa 0,0 l/m 0,2 km/h (0 Bft) S-SO 150 12,8 C 14,4 C
23.10.2020 03:40 14,4 C 90 % 1010,3 hPa 0,0 l/m 0,2 km/h (0 Bft) S-SO 150 12,8 C 14,4 C
23.10.2020 03:38 14,4 C 90 % 1010,3 hPa 0,0 l/m 0,2 km/h (0 Bft) S-SO 150 12,8 C 14,4 C
23.10.2020 03:36 14,4 C 89 % 1010,3 hPa 0,0 l/m 4,3 km/h (1 Bft) S-SO 150 12,6 C 14,4 C
23.10.2020 03:34 14,4 C 89 % 1010,3 hPa 0,0 l/m 4,3 km/h (1 Bft) S-SO 150 12,6 C 14,4 C
23.10.2020 03:32 14,4 C 89 % 1010,3 hPa 0,0 l/m 4,0 km/h (1 Bft) S-SO22.5 160 12,6 C 14,4 C
23.10.2020 03:30 14,4 C 89 % 1010,3 hPa 0,0 l/m 0,1 km/h (0 Bft) S 175 12,6 C 14,4 C
23.10.2020 03:28 14,4 C 89 % 1010,3 hPa 0,0 l/m 0,6 km/h (0 Bft) S 180 12,6 C 14,4 C
23.10.2020 03:26 14,4 C 89 % 1010,3 hPa 0,0 l/m 0,6 km/h (0 Bft) S 180 12,6 C 14,4 C
23.10.2020 03:24 14,4 C 89 % 1010,3 hPa 0,0 l/m 4,8 km/h (1 Bft) S22.5 180 12,6 C 14,4 C
23.10.2020 03:22 14,4 C 89 % 1010,3 hPa 0,0 l/m 3,0 km/h (1 Bft) S 170 12,6 C 14,4 C
23.10.2020 03:20 14,4 C 89 % 1010,3 hPa 0,0 l/m 2,5 km/h (1 Bft) S 175 12,6 C 14,4 C
23.10.2020 03:17 14,4 C 89 % 1010,3 hPa 0,0 l/m 2,5 km/h (1 Bft) S 175 12,6 C 14,4 C
23.10.2020 03:16 14,4 C 89 % 1010,3 hPa 0,0 l/m 2,3 km/h (1 Bft) S 170 12,6 C 14,4 C
23.10.2020 03:14 14,4 C 88 % 1010,3 hPa 0,0 l/m 2,2 km/h (1 Bft) S 170 12,4 C 14,4 C
23.10.2020 03:12 14,4 C 88 % 1010,3 hPa 0,0 l/m 2,2 km/h (1 Bft) S 170 12,4 C 14,4 C
23.10.2020 03:10 14,4 C 88 % 1010,3 hPa 0,0 l/m 3,4 km/h (1 Bft) S22.5 170 12,4 C 14,4 C
23.10.2020 03:08 14,4 C 88 % 1010,3 hPa 0,0 l/m 3,6 km/h (1 Bft) S22.5 185 12,4 C 14,4 C
23.10.2020 03:06 14,3 C 88 % 1010,3 hPa 0,0 l/m 0,6 km/h (0 Bft) S 185 12,3 C 14,3 C
23.10.2020 03:04 14,3 C 88 % 1010,3 hPa 0,0 l/m 0,6 km/h (0 Bft) S 185 12,3 C 14,3 C
23.10.2020 03:02 14,3 C 87 % 1010,3 hPa 0,0 l/m 0,0 km/h (0 Bft) S 185 12,2 C 14,3 C
23.10.2020 03:00 14,3 C 87 % 1010,3 hPa 0,0 l/m 0,0 km/h (0 Bft) S 185 12,2 C 14,3 C
23.10.2020 02:58 14,3 C 87 % 1010,3 hPa 0,0 l/m 0,0 km/h (0 Bft) S 185 12,2 C 14,3 C
23.10.2020 02:56 14,3 C 87 % 1010,3 hPa 0,0 l/m 0,0 km/h (0 Bft) S 185 12,2 C 14,3 C
23.10.2020 02:54 14,3 C 87 % 1010,3 hPa 0,0 l/m 0,0 km/h (0 Bft) S 185 12,2 C 14,3 C
23.10.2020 02:52 14,3 C 87 % 1010,3 hPa 0,0 l/m 0,0 km/h (0 Bft) S 185 12,2 C 14,3 C
23.10.2020 02:50 14,3 C 87 % 1010,3 hPa 0,0 l/m 0,0 km/h (0 Bft) S 185 12,2 C 14,3 C
23.10.2020 02:48 14,4 C 87 % 1010,3 hPa 0,0 l/m 0,0 km/h (0 Bft) S 185 12,3 C 14,4 C
23.10.2020 02:46 14,4 C 87 % 1010,3 hPa 0,0 l/m 0,0 km/h (0 Bft) S 185 12,3 C 14,4 C
23.10.2020 02:44 14,4 C 87 % 1010,3 hPa 0,0 l/m 0,0 km/h (0 Bft) S 185 12,3 C 14,4 C
23.10.2020 02:42 14,4 C 87 % 1010,3 hPa 0,0 l/m 0,0 km/h (0 Bft) S 185 12,3 C 14,4 C
23.10.2020 02:40 14,4 C 87 % 1010,3 hPa 0,0 l/m 0,0 km/h (0 Bft) S 185 12,3 C 14,4 C
23.10.2020 02:38 14,4 C 87 % 1010,3 hPa 0,0 l/m 0,0 km/h (0 Bft) S 185 12,3 C 14,4 C
23.10.2020 02:36 14,4 C 86 % 1010,3 hPa 0,0 l/m 0,0 km/h (0 Bft) S 185 12,1 C 14,4 C
23.10.2020 02:34 14,4 C 86 % 1010,3 hPa 0,0 l/m 0,0 km/h (0 Bft) S 185 12,1 C 14,4 C
_ Min-Zeit 02:50 00:00 00:00 - 00:10 - - 00:00 02:50
Minimum _ 14,3 C 75 % 1010,2 hPa - 0,0 km/h (0 Bft) - - 11,8 C 14,3 C
_ Max-Zeit 00:00 03:38 02:50 00:36 03:24 - - 03:38 00:00
Maximum _ 16,2 C 90 % 1010,3 hPa 0,4 l/m 4,8 km/h
S (1 Bft)
- - 12,8 C 16,2 C
Durchschnitt _ 14,9 C 84 % 1010,3 hPa #0,4 l/m 0,5 km/h (0 Bft) S - 12,3 C 14,9 C